Time;durP1;ratioP1;P1;durP2;ratioP2;P2;SDS_P1;SDS_P2;PMS_P1;PMS_P2;Temp;Humidity;BMP_temperature;BMP_pressure;BME280_temperature;BME280_humidity;BME280_pressure;Samples;Min_cycle;Max_cycle;Signal;HPM_P1;HPM_P2
2021/05/22 00:00:10;;;;;;;3.13;0.60;;;17.80;60.60;;;;;;5051663;28;20036;-73
2021/05/22 00:02:36;;;;;;;2.83;0.95;;;17.80;60.50;;;;;;5051909;28;20111;-74
2021/05/22 00:05:02;;;;;;;3.70;0.80;;;17.80;60.60;;;;;;5052128;28;20115;-74
2021/05/22 00:07:28;;;;;;;4.63;1.02;;;17.80;60.60;;;;;;5051480;28;20395;-74
2021/05/22 00:09:54;;;;;;;2.08;0.70;;;17.80;60.60;;;;;;5050711;28;20037;-74
2021/05/22 00:12:19;;;;;;;3.50;0.80;;;17.80;60.60;;;;;;5052256;28;20088;-74
2021/05/22 00:14:45;;;;;;;2.85;0.65;;;17.80;60.70;;;;;;5051827;28;20546;-73
2021/05/22 00:17:11;;;;;;;2.00;0.73;;;17.70;60.60;;;;;;5039633;28;20087;-74
2021/05/22 00:19:36;;;;;;;2.58;0.85;;;17.70;60.50;;;;;;5031957;28;20017;-74
2021/05/22 00:22:02;;;;;;;3.50;1.20;;;17.70;61.70;;;;;;5031920;28;20108;-74
2021/05/22 00:24:28;;;;;;;2.47;0.65;;;17.70;62.20;;;;;;5030837;28;20025;-74
2021/05/22 00:26:54;;;;;;;2.15;1.15;;;17.70;63.50;;;;;;5048846;28;20480;-75
2021/05/22 00:29:20;;;;;;;4.28;1.13;;;17.70;64.50;;;;;;5051626;28;20040;-74
2021/05/22 00:31:46;;;;;;;2.95;0.82;;;17.70;65.10;;;;;;5051884;28;20020;-74
2021/05/22 00:34:12;;;;;;;2.35;0.60;;;17.70;65.30;;;;;;5051454;28;20054;-74
2021/05/22 00:36:37;;;;;;;3.65;1.02;;;17.70;65.10;;;;;;5050233;28;20120;-74
2021/05/22 00:39:04;;;;;;;2.20;0.60;;;17.70;65.30;;;;;;5051365;28;20024;-74
2021/05/22 00:41:30;;;;;;;3.47;0.82;;;17.70;64.90;;;;;;5050107;28;20021;-74
2021/05/22 00:43:56;;;;;;;2.88;0.70;;;17.70;64.80;;;;;;5033640;28;20037;-74
2021/05/22 00:46:21;;;;;;;3.80;0.90;;;17.70;64.70;;;;;;5031463;28;20030;-74
2021/05/22 00:48:47;;;;;;;4.60;1.00;;;17.70;64.80;;;;;;5031785;28;20033;-74
2021/05/22 00:51:13;;;;;;;1.83;0.60;;;17.60;64.90;;;;;;5031538;28;20041;-73
2021/05/22 00:53:38;;;;;;;3.55;1.15;;;17.60;64.90;;;;;;5031418;28;20022;-73
2021/05/22 00:56:04;;;;;;;6.82;0.82;;;17.60;64.90;;;;;;5031530;28;20025;-73
2021/05/22 00:58:31;;;;;;;4.60;1.10;;;17.60;64.80;;;;;;5031420;28;20108;-73
2021/05/22 01:00:58;;;;;;;3.20;0.95;;;17.60;64.70;;;;;;5031564;28;20021;-73
2021/05/22 01:03:36;;;;;;;3.80;0.70;;;17.60;64.50;;;;;;5031381;28;20478;-73
2021/05/22 01:06:18;;;;;;;2.88;1.15;;;17.60;64.50;;;;;;5031471;28;20109;-73
2021/05/22 01:08:49;;;;;;;2.40;0.63;;;17.60;64.40;;;;;;5039091;28;20103;-73
2021/05/22 01:11:23;;;;;;;1.75;0.35;;;17.60;64.40;;;;;;5051226;28;20101;-74
2021/05/22 01:14:04;;;;;;;3.15;0.80;;;17.60;64.40;;;;;;5051689;28;20021;-73
2021/05/22 01:16:31;;;;;;;3.95;0.77;;;17.60;64.30;;;;;;5048529;28;20508;-73
2021/05/22 01:19:00;;;;;;;2.22;0.60;;;17.50;64.30;;;;;;5051160;28;20412;-73
2021/05/22 01:21:26;;;;;;;3.08;0.73;;;17.50;64.10;;;;;;5050910;28;20075;-73
2021/05/22 01:24:01;;;;;;;4.25;1.00;;;17.50;64.00;;;;;;5051259;28;20492;-73
2021/05/22 01:26:27;;;;;;;3.70;0.75;;;17.50;64.10;;;;;;5051110;28;20388;-73
2021/05/22 01:28:55;;;;;;;4.40;0.82;;;17.50;64.00;;;;;;5051350;28;20092;-72
2021/05/22 01:31:21;;;;;;;2.53;0.77;;;17.50;64.00;;;;;;5051179;28;20036;-73
2021/05/22 01:33:46;;;;;;;4.75;0.80;;;17.50;64.00;;;;;;5049928;28;20017;-73
2021/05/22 01:36:12;;;;;;;3.35;0.90;;;17.50;64.00;;;;;;5036050;28;20033;-74
2021/05/22 01:38:38;;;;;;;3.92;1.08;;;17.50;64.00;;;;;;5031065;28;20489;-73
2021/05/22 01:41:03;;;;;;;2.92;0.60;;;17.50;63.90;;;;;;5030943;28;20065;-74
2021/05/22 01:43:29;;;;;;;2.22;0.57;;;17.40;63.80;;;;;;5031092;28;20045;-74
2021/05/22 01:45:55;;;;;;;4.97;0.90;;;17.40;63.80;;;;;;5031318;28;20065;-73
2021/05/22 01:48:24;;;;;;;2.00;0.70;;;17.40;63.60;;;;;;5033629;28;20022;-73
2021/05/22 01:50:59;;;;;;;1.73;0.65;;;17.40;63.70;;;;;;5034579;28;20092;-73
2021/05/22 01:53:25;;;;;;;4.82;0.90;;;17.40;63.70;;;;;;5034763;28;20079;-72
2021/05/22 01:55:51;;;;;;;2.92;0.80;;;17.40;63.70;;;;;;5034594;28;20029;-73
2021/05/22 01:58:17;;;;;;;1.45;0.50;;;17.40;63.70;;;;;;5049837;28;20560;-73
2021/05/22 02:00:45;;;;;;;2.88;0.70;;;17.40;63.70;;;;;;5034359;28;20087;-73
2021/05/22 02:03:32;;;;;;;4.57;0.85;;;17.40;63.70;;;;;;5034257;28;20125;-73
2021/05/22 02:06:00;;;;;;;3.63;0.80;;;17.30;63.70;;;;;;5048588;28;20028;-73
2021/05/22 02:08:26;;;;;;;3.33;0.88;;;17.30;63.70;;;;;;5040850;28;20511;-73
2021/05/22 02:10:52;;;;;;;2.40;0.73;;;17.40;63.70;;;;;;5034108;28;20044;-73
2021/05/22 02:13:19;;;;;;;2.75;1.00;;;17.30;63.60;;;;;;5034125;28;20029;-73
2021/05/22 02:15:56;;;;;;;3.58;1.02;;;17.30;63.60;;;;;;5033916;28;20180;-73
2021/05/22 02:18:22;;;;;;;3.00;0.93;;;17.30;63.60;;;;;;5034030;28;20022;-73
2021/05/22 02:20:53;;;;;;;2.13;0.70;;;17.30;63.60;;;;;;5033760;28;20029;-74
2021/05/22 02:23:21;;;;;;;1.30;0.60;;;17.30;63.50;;;;;;5033865;28;20029;-73
2021/05/22 02:25:47;;;;;;;3.00;1.23;;;17.30;63.60;;;;;;5034365;28;20392;-74
2021/05/22 02:28:13;;;;;;;5.28;1.25;;;17.30;63.60;;;;;;5033845;28;20100;-74
2021/05/22 02:30:43;;;;;;;4.63;0.77;;;17.30;63.60;;;;;;5033710;28;20033;-74
2021/05/22 02:33:12;;;;;;;4.18;0.93;;;17.30;63.60;;;;;;5033621;28;20018;-73
2021/05/22 02:35:40;;;;;;;3.55;0.88;;;17.30;63.60;;;;;;5033506;28;20424;-73
2021/05/22 02:38:07;;;;;;;3.35;0.75;;;17.30;63.60;;;;;;5033637;28;20025;-73
2021/05/22 02:40:34;;;;;;;3.45;0.70;;;17.30;63.60;;;;;;5033370;28;20032;-73
2021/05/22 02:43:06;;;;;;;3.15;0.70;;;17.30;63.60;;;;;;5033677;28;20055;-74
2021/05/22 02:45:34;;;;;;;4.00;1.02;;;17.20;64.30;;;;;;5033619;28;20078;-73
2021/05/22 02:48:03;;;;;;;4.22;1.02;;;17.20;63.60;;;;;;5033413;28;20545;-73
2021/05/22 02:50:31;;;;;;;3.63;0.80;;;17.20;63.60;;;;;;5052240;28;20033;-74
2021/05/22 02:52:59;;;;;;;3.45;0.80;;;17.20;63.60;;;;;;5033635;28;20025;-74
2021/05/22 02:55:26;;;;;;;4.15;1.00;;;17.20;63.60;;;;;;5033287;28;20029;-73
2021/05/22 02:57:53;;;;;;;4.60;1.00;;;17.20;63.60;;;;;;5033034;28;20393;-73
2021/05/22 03:00:21;;;;;;;3.42;1.10;;;17.20;63.60;;;;;;5057045;28;20051;-73
2021/05/22 03:02:47;;;;;;;3.42;0.70;;;17.20;63.60;;;;;;5070284;28;20033;-73
2021/05/22 03:05:13;;;;;;;3.30;0.70;;;17.20;63.50;;;;;;5073164;28;20095;-73
2021/05/22 03:07:39;;;;;;;2.78;1.17;;;17.20;63.60;;;;;;5063321;28;20484;-73
2021/05/22 03:10:06;;;;;;;3.67;0.82;;;17.20;63.60;;;;;;5072435;28;20044;-74
2021/05/22 03:12:34;;;;;;;4.03;0.85;;;17.20;63.70;;;;;;5067825;28;20381;-74
2021/05/22 03:15:00;;;;;;;3.65;1.13;;;17.20;63.70;;;;;;5072903;28;20032;-74
2021/05/22 03:17:26;;;;;;;3.47;1.05;;;17.20;63.70;;;;;;5057265;28;20025;-74
2021/05/22 03:19:52;;;;;;;2.58;0.80;;;17.10;64.50;;;;;;5052443;28;20029;-74
2021/05/22 03:22:17;;;;;;;4.32;0.80;;;17.10;63.70;;;;;;5064315;28;20020;-73
2021/05/22 03:24:43;;;;;;;3.53;0.95;;;17.10;63.70;;;;;;5069069;28;20040;-73
2021/05/22 03:27:09;;;;;;;2.55;0.80;;;17.10;63.70;;;;;;5069607;28;20361;-74
2021/05/22 03:29:35;;;;;;;3.83;0.80;;;17.10;63.80;;;;;;5071165;28;20411;-74
2021/05/22 03:32:01;;;;;;;8.15;1.35;;;17.10;63.80;;;;;;5070825;28;20024;-74
2021/05/22 03:34:27;;;;;;;5.90;1.15;;;17.10;63.80;;;;;;5072570;28;20033;-73
2021/05/22 03:36:52;;;;;;;4.97;0.90;;;17.10;63.90;;;;;;5061437;28;20071;-73
2021/05/22 03:39:18;;;;;;;3.80;1.10;;;17.10;63.80;;;;;;5067436;28;20496;-74
2021/05/22 03:41:44;;;;;;;3.40;1.15;;;17.00;63.80;;;;;;5060027;28;20040;-73
2021/05/22 03:44:10;;;;;;;2.90;0.73;;;17.10;63.90;;;;;;5072159;28;20017;-72
2021/05/22 03:46:36;;;;;;;2.80;0.70;;;17.10;63.90;;;;;;5070677;28;20047;-73
2021/05/22 03:49:02;;;;;;;4.00;0.88;;;17.00;63.90;;;;;;5070568;28;20070;-73
2021/05/22 03:51:27;;;;;;;10.35;0.90;;;17.00;64.00;;;;;;5052376;28;20484;-72
2021/05/22 03:53:53;;;;;;;5.32;1.02;;;17.00;64.00;;;;;;5051803;28;20021;-72
2021/05/22 03:56:19;;;;;;;2.67;0.80;;;17.00;64.00;;;;;;5057467;28;20035;-72
2021/05/22 03:58:44;;;;;;;4.28;1.00;;;17.00;64.10;;;;;;5052210;28;20072;-73
2021/05/22 04:01:10;;;;;;;3.80;0.82;;;17.00;64.10;;;;;;5054976;28;20052;-74
2021/05/22 04:03:36;;;;;;;3.15;0.80;;;17.00;64.10;;;;;;5072019;28;20024;-73
2021/05/22 04:06:02;;;;;;;3.22;0.85;;;17.00;64.20;;;;;;5062465;28;20063;-73
2021/05/22 04:08:27;;;;;;;2.67;0.63;;;17.00;64.20;;;;;;5068648;28;20051;-73
2021/05/22 04:10:53;;;;;;;3.10;0.77;;;17.00;64.20;;;;;;5068271;28;20123;-73
2021/05/22 04:13:19;;;;;;;2.80;0.68;;;17.00;64.20;;;;;;5051794;28;20021;-73
2021/05/22 04:15:44;;;;;;;4.25;1.08;;;17.00;64.20;;;;;;5050955;28;20021;-74
2021/05/22 04:18:10;;;;;;;3.83;1.08;;;16.90;64.20;;;;;;5050159;28;20025;-73
2021/05/22 04:20:36;;;;;;;4.70;1.17;;;17.00;64.40;;;;;;5051437;28;20037;-73
2021/05/22 04:23:02;;;;;;;3.15;0.88;;;16.90;64.40;;;;;;5051086;28;20029;-73
2021/05/22 04:25:28;;;;;;;3.83;0.77;;;17.00;64.40;;;;;;5057074;28;20028;-73
2021/05/22 04:27:54;;;;;;;4.25;1.33;;;16.90;64.40;;;;;;5070061;28;20027;-73
2021/05/22 04:30:20;;;;;;;6.22;0.90;;;16.90;64.50;;;;;;5071627;28;20040;-73
2021/05/22 04:32:46;;;;;;;5.40;1.27;;;16.90;64.50;;;;;;5062661;28;20518;-74
2021/05/22 04:35:12;;;;;;;3.00;0.82;;;16.90;64.50;;;;;;5069747;28;20029;-74
2021/05/22 04:37:38;;;;;;;3.80;0.80;;;16.90;64.60;;;;;;5058424;28;20074;-74
2021/05/22 04:40:05;;;;;;;4.70;1.25;;;16.90;64.50;;;;;;5068562;28;20447;-73
2021/05/22 04:42:31;;;;;;;3.30;0.90;;;16.90;64.70;;;;;;5071868;28;20020;-73
2021/05/22 04:44:56;;;;;;;2.13;0.80;;;16.90;64.70;;;;;;5053150;28;20034;-73
2021/05/22 04:47:22;;;;;;;5.65;0.82;;;16.90;64.80;;;;;;5064248;28;20044;-73
2021/05/22 04:49:48;;;;;;;3.65;0.70;;;16.90;64.80;;;;;;5060775;28;20037;-74
2021/05/22 04:52:13;;;;;;;3.42;1.17;;;16.90;64.80;;;;;;5062505;28;20024;-74
2021/05/22 04:54:39;;;;;;;4.80;1.52;;;16.80;64.80;;;;;;5071602;28;20032;-74
2021/05/22 04:57:05;;;;;;;3.83;1.10;;;16.90;64.90;;;;;;5053960;28;20065;-74
2021/05/22 04:59:31;;;;;;;3.15;0.80;;;16.80;65.00;;;;;;5051498;28;20078;-74
2021/05/22 05:01:57;;;;;;;6.32;0.93;;;16.80;65.00;;;;;;5061850;28;20032;-73
2021/05/22 05:04:22;;;;;;;3.17;0.95;;;16.80;65.10;;;;;;5071091;28;20397;-73
2021/05/22 05:06:48;;;;;;;2.72;0.75;;;16.80;65.00;;;;;;5066773;28;20028;-74
2021/05/22 05:09:14;;;;;;;3.58;0.73;;;16.80;65.90;;;;;;5071390;28;20069;-73
2021/05/22 05:11:39;;;;;;;7.38;1.10;;;16.80;65.20;;;;;;5067314;28;20028;-74
2021/05/22 05:14:05;;;;;;;3.70;1.00;;;16.80;65.20;;;;;;5071305;28;20021;-73
2021/05/22 05:16:31;;;;;;;2.90;0.60;;;16.80;65.20;;;;;;5069688;28;20066;-73
2021/05/22 05:18:56;;;;;;;3.17;0.60;;;16.80;65.30;;;;;;5071115;28;20419;-74
2021/05/22 05:21:22;;;;;;;4.38;1.08;;;16.80;65.30;;;;;;5069740;28;20036;-73
2021/05/22 05:23:48;;;;;;;5.10;1.08;;;16.80;65.30;;;;;;5072543;28;20496;-73
2021/05/22 05:26:14;;;;;;;5.70;1.17;;;16.80;65.40;;;;;;5072252;28;20450;-74
2021/05/22 05:28:39;;;;;;;5.50;1.35;;;16.80;65.40;;;;;;5074925;28;20092;-74
2021/05/22 05:31:06;;;;;;;4.88;0.70;;;16.80;65.60;;;;;;5071925;28;20411;-74
2021/05/22 05:33:31;;;;;;;4.32;0.95;;;16.80;65.60;;;;;;5068458;28;20017;-73
2021/05/22 05:35:57;;;;;;;5.78;0.90;;;16.80;65.60;;;;;;5059855;28;20036;-73
2021/05/22 05:38:23;;;;;;;3.85;1.00;;;16.70;65.70;;;;;;5074629;28;20021;-74
2021/05/22 05:40:48;;;;;;;2.53;0.90;;;16.80;65.80;;;;;;5072359;28;20103;-74
2021/05/22 05:43:17;;;;;;;4.35;0.95;;;16.80;65.80;;;;;;5074517;28;20024;-74
2021/05/22 05:45:43;;;;;;;3.70;1.00;;;16.80;65.90;;;;;;5073202;28;20021;-74
2021/05/22 05:48:09;;;;;;;2.40;0.57;;;16.80;65.90;;;;;;5071309;28;20020;-74
2021/05/22 05:50:35;;;;;;;5.25;1.02;;;16.70;65.90;;;;;;5054159;28;20067;-73
2021/05/22 05:53:02;;;;;;;2.90;0.70;;;16.80;65.90;;;;;;5066979;28;20485;-73
2021/05/22 05:55:28;;;;;;;3.00;0.80;;;16.80;66.00;;;;;;5055044;28;20043;-73
2021/05/22 05:57:56;;;;;;;4.18;0.90;;;16.80;66.10;;;;;;5054215;28;20397;-73
2021/05/22 06:00:22;;;;;;;4.65;1.15;;;16.70;66.00;;;;;;5058050;28;20028;-73
2021/05/22 06:02:48;;;;;;;2.53;0.60;;;16.70;66.00;;;;;;5073080;28;20396;-73
2021/05/22 06:05:14;;;;;;;4.50;0.80;;;16.80;66.20;;;;;;5070632;28;20044;-73
2021/05/22 06:07:40;;;;;;;2.47;0.68;;;16.80;66.20;;;;;;5068496;28;20377;-74
2021/05/22 06:10:07;;;;;;;3.33;0.75;;;16.70;67.00;;;;;;5074354;28;20039;-73
2021/05/22 06:12:34;;;;;;;4.03;1.00;;;16.70;66.30;;;;;;5067727;28;20025;-73
2021/05/22 06:15:20;;;;;;;2.17;0.68;;;16.70;66.30;;;;;;5050559;28;20039;-73
2021/05/22 06:17:46;;;;;;;2.65;0.70;;;16.70;66.40;;;;;;5072601;28;20036;-75
2021/05/22 06:20:13;;;;;;;3.00;0.80;;;16.70;66.40;;;;;;5074127;28;20553;-75
2021/05/22 06:22:39;;;;;;;5.38;0.95;;;16.70;66.50;;;;;;5061769;28;20066;-76
2021/05/22 06:25:05;;;;;;;4.97;1.08;;;16.70;66.50;;;;;;5073713;28;20029;-76
2021/05/22 06:27:31;;;;;;;4.05;0.70;;;16.70;66.60;;;;;;5065277;28;20400;-76
2021/05/22 06:29:57;;;;;;;3.85;0.88;;;16.70;66.70;;;;;;5063778;28;20032;-75
2021/05/22 06:32:22;;;;;;;3.92;1.17;;;16.70;66.60;;;;;;5056994;28;20055;-76
2021/05/22 06:34:48;;;;;;;3.78;0.63;;;16.70;66.80;;;;;;5056491;28;20527;-75
2021/05/22 06:37:14;;;;;;;4.70;1.00;;;16.70;66.80;;;;;;5055595;28;20048;-75
2021/05/22 06:39:39;;;;;;;2.75;1.10;;;16.70;66.90;;;;;;5053175;28;20029;-76
2021/05/22 06:42:05;;;;;;;2.38;0.85;;;16.70;66.90;;;;;;5053218;28;20049;-75
2021/05/22 06:44:35;;;;;;;3.22;0.93;;;16.60;67.00;;;;;;5056357;28;20085;-75
2021/05/22 06:47:01;;;;;;;2.67;0.75;;;16.60;67.10;;;;;;5052015;28;20037;-73
2021/05/22 06:49:31;;;;;;;3.08;0.85;;;16.70;67.10;;;;;;5051686;28;20028;-75
2021/05/22 06:52:01;;;;;;;3.10;0.63;;;16.60;67.00;;;;;;5062305;28;20055;-76
2021/05/22 06:54:29;;;;;;;3.90;0.77;;;16.60;67.20;;;;;;5070153;28;20024;-75
2021/05/22 06:56:55;;;;;;;3.67;0.70;;;16.70;67.30;;;;;;5072941;28;20051;-75
2021/05/22 06:59:20;;;;;;;3.65;0.80;;;16.60;67.30;;;;;;5071642;28;20492;-75
2021/05/22 07:01:46;;;;;;;2.42;0.70;;;16.60;67.40;;;;;;5066736;28;20028;-73
2021/05/22 07:04:12;;;;;;;3.38;0.80;;;16.60;67.40;;;;;;5054195;28;20032;-75
2021/05/22 07:06:37;;;;;;;4.65;1.13;;;16.60;67.60;;;;;;5052266;28;20429;-75
2021/05/22 07:09:04;;;;;;;5.40;0.80;;;16.60;67.60;;;;;;5052635;28;20035;-75
2021/05/22 07:11:29;;;;;;;2.97;1.00;;;16.60;67.50;;;;;;5064342;28;20033;-76
2021/05/22 07:13:55;;;;;;;3.70;1.02;;;16.60;67.60;;;;;;5072652;28;20391;-75
2021/05/22 07:16:20;;;;;;;2.97;0.93;;;16.60;67.70;;;;;;5061205;28;20464;-75
2021/05/22 07:18:46;;;;;;;5.28;1.13;;;16.60;67.70;;;;;;5052757;28;20029;-76
2021/05/22 07:21:12;;;;;;;3.28;0.70;;;16.60;67.90;;;;;;5056192;28;20017;-74
2021/05/22 07:23:38;;;;;;;6.45;1.13;;;16.60;67.80;;;;;;5072815;28;20031;-74
2021/05/22 07:26:04;;;;;;;7.15;1.05;;;16.60;68.20;;;;;;5067540;28;20021;-76
2021/05/22 07:28:32;;;;;;;5.38;1.55;;;16.60;68.10;;;;;;5050597;28;20075;-74
2021/05/22 07:30:59;;;;;;;3.78;0.93;;;16.60;68.10;;;;;;5057737;28;20105;-76
2021/05/22 07:33:31;;;;;;;2.88;0.80;;;16.70;68.60;;;;;;5052050;28;20021;-75
2021/05/22 07:35:57;;;;;;;3.53;0.73;;;16.80;68.40;;;;;;5052386;28;20526;-75
2021/05/22 07:38:23;;;;;;;2.20;0.80;;;16.90;68.40;;;;;;5050787;28;20017;-75
2021/05/22 07:40:49;;;;;;;5.63;0.88;;;17.00;68.20;;;;;;5052176;28;20499;-76
2021/05/22 07:43:17;;;;;;;5.72;0.80;;;17.10;68.20;;;;;;5052942;28;20683;-74
2021/05/22 07:45:42;;;;;;;3.40;0.70;;;17.10;68.10;;;;;;5050402;28;20507;-74
2021/05/22 07:48:08;;;;;;;5.07;1.60;;;17.30;68.10;;;;;;5059715;28;20029;-72
2021/05/22 07:50:35;;;;;;;5.45;1.10;;;17.30;68.40;;;;;;5051406;28;20068;-75
2021/05/22 07:53:02;;;;;;;3.60;1.40;;;17.40;68.10;;;;;;5053341;28;20106;-77
2021/05/22 07:55:28;;;;;;;1.80;0.70;;;17.50;68.40;;;;;;5058962;28;20393;-78
2021/05/22 07:57:54;;;;;;;8.38;3.42;;;17.60;68.40;;;;;;5049957;28;20029;-76
2021/05/22 08:00:20;;;;;;;22.10;10.52;;;17.60;68.50;;;;;;5051931;28;20037;-74
2021/05/22 08:02:46;;;;;;;14.32;6.90;;;17.70;68.20;;;;;;5061248;28;20094;-75
2021/05/22 08:05:13;;;;;;;11.75;5.20;;;17.80;67.90;;;;;;5069906;28;20060;-76
2021/05/22 08:07:40;;;;;;;13.13;5.97;;;17.80;67.90;;;;;;5050732;28;20036;-75
2021/05/22 08:10:06;;;;;;;12.85;5.55;;;17.90;67.80;;;;;;5052260;28;20128;-76
2021/05/22 08:12:33;;;;;;;13.07;5.13;;;18.00;67.40;;;;;;5052460;28;20025;-76
2021/05/22 08:14:58;;;;;;;15.45;5.57;;;18.00;67.00;;;;;;5055648;28;20036;-75
2021/05/22 08:17:24;;;;;;;8.13;3.90;;;18.10;66.90;;;;;;5051211;28;20024;-75
2021/05/22 08:19:50;;;;;;;7.10;3.75;;;18.20;66.80;;;;;;5057257;28;20104;-74
2021/05/22 08:22:15;;;;;;;7.55;3.35;;;18.20;66.40;;;;;;5047095;28;20029;-74
2021/05/22 08:24:41;;;;;;;7.63;3.33;;;18.30;66.20;;;;;;5056269;28;20056;-75
2021/05/22 08:27:08;;;;;;;9.65;3.22;;;18.30;66.00;;;;;;5049074;28;20083;-75
2021/05/22 08:29:33;;;;;;;8.88;3.30;;;18.40;65.90;;;;;;5049962;28;20040;-74
2021/05/22 08:31:59;;;;;;;10.00;3.20;;;18.40;65.80;;;;;;5050505;28;20025;-74
2021/05/22 08:34:26;;;;;;;7.38;2.20;;;18.50;65.60;;;;;;5051028;28;20029;-75
2021/05/22 08:36:52;;;;;;;6.15;2.33;;;18.50;65.50;;;;;;5051521;28;20476;-74
2021/05/22 08:39:18;;;;;;;5.13;1.95;;;18.60;65.40;;;;;;5054682;28;20025;-74
2021/05/22 08:41:44;;;;;;;5.50;2.45;;;18.60;65.40;;;;;;5053814;28;20031;-76
2021/05/22 08:44:10;;;;;;;5.05;2.10;;;18.60;65.30;;;;;;5055596;28;20109;-75
2021/05/22 08:46:36;;;;;;;9.48;2.13;;;18.70;65.40;;;;;;5055315;28;20112;-76
2021/05/22 08:49:01;;;;;;;7.30;2.67;;;18.80;65.30;;;;;;5054452;28;20033;-76
2021/05/22 08:51:27;;;;;;;4.97;2.17;;;18.80;65.10;;;;;;5048388;28;20071;-76
2021/05/22 08:53:53;;;;;;;5.65;1.75;;;18.80;64.90;;;;;;5050241;28;20029;-76
2021/05/22 08:56:19;;;;;;;5.10;1.88;;;18.90;64.70;;;;;;5056107;28;20021;-76
2021/05/22 08:58:45;;;;;;;4.68;1.70;;;18.90;64.50;;;;;;5055424;28;20051;-76
2021/05/22 09:01:11;;;;;;;4.30;1.40;;;18.90;64.40;;;;;;5058490;28;20024;-75
2021/05/22 09:03:37;;;;;;;5.53;2.00;;;19.00;64.30;;;;;;5072207;28;20032;-76
2021/05/22 09:06:04;;;;;;;7.20;2.05;;;19.00;64.20;;;;;;5061279;28;20031;-76
2021/05/22 09:08:33;;;;;;;4.75;1.60;;;19.00;64.00;;;;;;5057002;28;20051;-75
2021/05/22 09:11:05;;;;;;;2.70;1.08;;;19.10;64.00;;;;;;5055851;28;20043;-75
2021/05/22 09:13:33;;;;;;;6.30;1.95;;;19.10;63.90;;;;;;5065066;28;20033;-76
2021/05/22 09:16:09;;;;;;;4.00;1.48;;;19.10;63.80;;;;;;5052570;28;21204;-76
2021/05/22 09:18:44;;;;;;;5.28;1.60;;;19.20;63.70;;;;;;5054369;28;20069;-76
2021/05/22 09:21:12;;;;;;;3.85;1.23;;;19.20;63.60;;;;;;5054025;28;20028;-76
2021/05/22 09:23:40;;;;;;;4.45;1.30;;;19.30;63.60;;;;;;5053999;28;20037;-75
2021/05/22 09:26:14;;;;;;;4.10;1.30;;;19.30;63.50;;;;;;5063957;28;20024;-76
2021/05/22 09:28:49;;;;;;;6.97;1.50;;;19.30;63.50;;;;;;5055219;28;20037;-76
2021/05/22 09:31:20;;;;;;;4.80;1.27;;;19.30;63.30;;;;;;5060346;28;20032;-76
2021/05/22 09:33:46;;;;;;;2.60;0.82;;;19.30;63.30;;;;;;5066858;28;20090;-75
2021/05/22 09:36:13;;;;;;;5.53;1.13;;;19.40;63.20;;;;;;5052960;28;20063;-77
2021/05/22 09:38:53;;;;;;;6.47;1.23;;;19.40;63.10;;;;;;5053416;28;20044;-77
2021/05/22 09:41:32;;;;;;;5.13;1.20;;;19.40;63.30;;;;;;5052930;28;20024;-77
2021/05/22 09:44:09;;;;;;;7.55;1.35;;;19.50;63.40;;;;;;5047155;28;20079;-77
2021/05/22 09:46:44;;;;;;;5.82;1.40;;;19.50;63.30;;;;;;5058510;28;20104;-77
2021/05/22 09:49:11;;;;;;;2.97;0.93;;;19.60;63.20;;;;;;5052106;28;20374;-75
2021/05/22 09:51:56;;;;;;;3.05;1.23;;;19.60;63.10;;;;;;5059783;28;20528;-77
2021/05/22 09:54:43;;;;;;;5.60;1.05;;;19.60;63.10;;;;;;5049786;28;20036;-76
2021/05/22 09:57:11;;;;;;;3.47;1.15;;;19.70;63.20;;;;;;5053613;28;20036;-77
2021/05/22 09:59:37;;;;;;;4.32;1.30;;;19.70;63.10;;;;;;5052371;28;20027;-81
2021/05/22 10:02:03;;;;;;;3.67;1.02;;;19.70;63.20;;;;;;5052425;28;20493;-78
2021/05/22 10:04:29;;;;;;;2.72;0.80;;;19.70;63.20;;;;;;5064907;28;20028;-78
2021/05/22 10:06:58;;;;;;;5.15;1.05;;;19.80;63.10;;;;;;5051721;28;20747;-79
2021/05/22 10:09:25;;;;;;;6.07;1.27;;;19.80;63.70;;;;;;5052495;28;20032;-78
2021/05/22 10:12:11;;;;;;;5.47;1.05;;;19.90;63.10;;;;;;5060833;28;20021;-78
2021/05/22 10:14:47;;;;;;;3.40;1.25;;;19.90;63.00;;;;;;5054212;28;20056;-79
2021/05/22 10:17:13;;;;;;;5.50;1.02;;;19.90;63.10;;;;;;5053464;28;20119;-81
2021/05/22 10:19:40;;;;;;;3.45;0.93;;;20.00;63.80;;;;;;5051656;28;20116;-81
2021/05/22 10:22:07;;;;;;;3.53;1.13;;;20.00;63.90;;;;;;5061284;28;20507;-80
2021/05/22 10:24:33;;;;;;;4.38;1.10;;;20.10;64.00;;;;;;5063459;28;20442;-78
2021/05/22 10:27:00;;;;;;;3.30;1.10;;;20.10;64.00;;;;;;5061944;28;20083;-78
2021/05/22 10:29:26;;;;;;;4.43;1.30;;;20.10;64.40;;;;;;5052834;28;20044;-77
2021/05/22 10:31:53;;;;;;;7.45;1.77;;;20.10;64.50;;;;;;5054952;28;20032;-76
2021/05/22 10:34:21;;;;;;;3.30;1.20;;;20.10;64.60;;;;;;5064115;28;20081;-76
2021/05/22 10:37:00;;;;;;;3.38;1.52;;;20.10;64.90;;;;;;5052438;28;20032;-79
2021/05/22 10:39:39;;;;;;;3.42;1.30;;;20.00;65.20;;;;;;5058497;28;20032;-76
2021/05/22 10:42:18;;;;;;;2.78;0.93;;;20.10;65.30;;;;;;5053261;28;20045;-76
2021/05/22 10:44:44;;;;;;;3.65;0.90;;;20.10;65.40;;;;;;5036109;28;20013;-78
2021/05/22 10:47:17;;;;;;;6.65;1.05;;;20.10;65.10;;;;;;5057262;28;20447;-76
2021/05/22 10:49:53;;;;;;;4.65;0.93;;;20.10;65.10;;;;;;5052658;28;20124;-75
2021/05/22 10:52:34;;;;;;;3.55;1.38;;;20.10;65.00;;;;;;5060621;28;20066;-75
2021/05/22 10:55:03;;;;;;;7.78;0.98;;;20.20;64.90;;;;;;5054826;28;20040;-75
2021/05/22 10:57:30;;;;;;;4.05;1.08;;;20.30;64.90;;;;;;5048847;28;20029;-77
2021/05/22 11:00:14;;;;;;;2.33;0.73;;;20.30;65.00;;;;;;5052119;28;20051;-78
2021/05/22 11:02:45;;;;;;;4.35;0.93;;;20.30;64.90;;;;;;5061740;28;20028;-76
2021/05/22 11:05:29;;;;;;;3.03;0.80;;;20.30;64.90;;;;;;5064452;28;20028;-77
2021/05/22 11:08:04;;;;;;;2.42;0.68;;;20.40;64.50;;;;;;5063282;28;20033;-77
2021/05/22 11:10:48;;;;;;;3.63;0.80;;;20.40;64.30;;;;;;5054555;28;20037;-76
2021/05/22 11:13:20;;;;;;;1.55;0.70;;;20.40;64.10;;;;;;5071036;28;20032;-77
2021/05/22 11:15:51;;;;;;;1.88;0.50;;;20.50;64.10;;;;;;5056737;28;20520;-77
2021/05/22 11:18:25;;;;;;;3.55;0.82;;;20.50;64.00;;;;;;5050247;28;20085;-77
2021/05/22 11:21:14;;;;;;;2.35;0.90;;;20.50;64.00;;;;;;5035030;28;20051;-76
2021/05/22 11:23:58;;;;;;;2.03;0.73;;;20.50;64.00;;;;;;5054880;28;20036;-78
2021/05/22 11:26:48;;;;;;;0.85;0.40;;;20.60;64.10;;;;;;5061269;28;20032;-80
2021/05/22 11:29:15;;;;;;;4.88;0.85;;;20.60;63.80;;;;;;5061373;28;20021;-80
2021/05/22 11:31:40;;;;;;;4.50;0.90;;;20.60;65.30;;;;;;5049427;28;20029;-79
2021/05/22 11:34:27;;;;;;;3.53;0.50;;;20.90;99.90;;;;;;5058291;28;20025;-81
2021/05/22 11:37:11;;;;;;;1.80;0.80;;;20.20;77.70;;;;;;5054418;28;20112;-88
2021/05/22 11:39:47;;;;;;;2.42;0.52;;;20.20;73.30;;;;;;5061207;28;20039;-87
2021/05/22 11:42:35;;;;;;;1.10;0.40;;;20.20;71.40;;;;;;5063893;28;20064;-83
2021/05/22 11:45:05;;;;;;;1.52;0.43;;;20.20;70.30;;;;;;5048785;28;20050;-83
2021/05/22 11:47:32;;;;;;;2.92;0.50;;;20.20;70.10;;;;;;5050433;28;20082;-83
2021/05/22 11:49:59;;;;;;;1.35;0.52;;;20.20;69.90;;;;;;5051483;28;20040;-83
2021/05/22 11:52:28;;;;;;;2.75;0.60;;;20.30;69.50;;;;;;5064303;28;20103;-83
2021/05/22 11:54:54;;;;;;;4.07;0.50;;;20.30;69.10;;;;;;5051835;28;20066;-85
2021/05/22 11:57:20;;;;;;;1.50;0.60;;;20.40;68.90;;;;;;5052905;28;20028;-83
2021/05/22 11:59:57;;;;;;;1.17;0.40;;;20.40;68.50;;;;;;5051769;28;20135;-82
2021/05/22 12:02:39;;;;;;;1.08;0.40;;;20.40;67.90;;;;;;5061579;28;20094;-81
2021/05/22 12:05:07;;;;;;;2.17;0.43;;;20.50;67.70;;;;;;5051007;28;20033;-80
2021/05/22 12:07:54;;;;;;;2.28;0.50;;;20.50;68.30;;;;;;5049802;28;20610;-80
2021/05/22 12:10:20;;;;;;;3.20;0.73;;;20.50;67.40;;;;;;5050884;28;20047;-79
2021/05/22 12:12:46;;;;;;;4.93;0.50;;;20.50;67.20;;;;;;5064105;28;20028;-80
2021/05/22 12:15:22;;;;;;;0.77;0.32;;;20.50;67.00;;;;;;5051530;28;20047;-80
2021/05/22 12:17:48;;;;;;;2.85;0.88;;;20.60;66.80;;;;;;5051937;28;20028;-77
2021/05/22 12:20:14;;;;;;;3.90;0.43;;;20.60;66.70;;;;;;5054822;28;20527;-78
2021/05/22 12:22:40;;;;;;;4.28;0.52;;;20.70;66.60;;;;;;5064301;28;20029;-77
2021/05/22 12:25:06;;;;;;;3.13;0.40;;;20.70;66.40;;;;;;5050930;28;20155;-77
2021/05/22 12:27:32;;;;;;;1.67;0.50;;;20.80;66.40;;;;;;5062214;28;20027;-76
2021/05/22 12:29:58;;;;;;;1.35;0.30;;;20.70;66.00;;;;;;5050876;28;20107;-77
2021/05/22 12:32:24;;;;;;;1.05;0.32;;;20.80;66.00;;;;;;5054294;28;20419;-76
2021/05/22 12:35:01;;;;;;;1.25;0.40;;;20.90;65.90;;;;;;5051076;28;20036;-76
2021/05/22 12:37:27;;;;;;;0.82;0.30;;;20.90;66.00;;;;;;5050136;28;20493;-76
2021/05/22 12:40:05;;;;;;;2.22;0.50;;;21.00;67.00;;;;;;5050953;28;20143;-76
2021/05/22 12:42:36;;;;;;;2.60;0.55;;;21.00;66.40;;;;;;5055020;28;20017;-75
2021/05/22 12:45:16;;;;;;;2.58;0.57;;;21.10;66.50;;;;;;5050906;28;20025;-76
2021/05/22 12:47:50;;;;;;;1.63;0.30;;;21.10;66.40;;;;;;5051715;28;20025;-76
2021/05/22 12:50:27;;;;;;;1.05;0.32;;;21.10;66.30;;;;;;5051138;28;20044;-76